Time;durP1;ratioP1;P1;durP2;ratioP2;P2;SDS_P1;SDS_P2;PMS_P1;PMS_P2;Temp;Humidity;BMP_temperature;BMP_pressure;BME280_temperature;BME280_humidity;BME280_pressure;Samples;Min_cycle;Max_cycle;Signal;HPM_P1;HPM_P2
2021/10/27 00:00:37;;;;;;;17.08;8.75;;;;;;;13.35;100.00;102119.38;4908225;29;20055;-69
2021/10/27 00:03:06;;;;;;;20.88;8.52;;;;;;;13.39;100.00;102128.22;4915149;29;20275;-69
2021/10/27 00:05:34;;;;;;;17.30;8.05;;;;;;;13.34;100.00;102119.41;4914691;29;20062;-69
2021/10/27 00:08:02;;;;;;;24.42;8.93;;;;;;;13.40;100.00;102116.56;4910021;29;20507;-69
2021/10/27 00:10:29;;;;;;;21.70;9.45;;;;;;;13.41;100.00;102121.91;4913271;29;20199;-69
2021/10/27 00:12:57;;;;;;;23.67;9.23;;;;;;;13.41;100.00;102118.34;4904410;29;20190;-69
2021/10/27 00:15:25;;;;;;;20.88;8.75;;;;;;;13.39;100.00;102122.88;4914509;29;20103;-69
2021/10/27 00:17:53;;;;;;;22.75;9.20;;;;;;;13.42;100.00;102114.75;4909357;29;20131;-69
2021/10/27 00:20:22;;;;;;;21.77;8.88;;;;;;;13.38;100.00;102122.00;4913739;29;20416;-69
2021/10/27 00:22:50;;;;;;;16.85;8.07;;;;;;;13.38;100.00;102127.34;4915466;29;20052;-69
2021/10/27 00:25:18;;;;;;;22.83;9.23;;;;;;;13.34;100.00;102133.69;4910859;29;20143;-69
2021/10/27 00:27:46;;;;;;;22.73;11.07;;;;;;;13.33;100.00;102126.59;4915601;29;20047;-69
2021/10/27 00:30:14;;;;;;;22.13;9.95;;;;;;;13.32;100.00;102129.28;4910530;29;20047;-69
2021/10/27 00:32:42;;;;;;;25.85;10.75;;;;;;;13.35;100.00;102132.78;4914480;29;20078;-70
2021/10/27 00:35:10;;;;;;;21.52;11.52;;;;;;;13.23;100.00;102125.00;4907946;29;20492;-70
2021/10/27 00:37:39;;;;;;;23.02;11.82;;;;;;;13.18;100.00;102122.41;4916501;29;20383;-70
2021/10/27 00:40:09;;;;;;;22.00;12.02;;;;;;;13.12;100.00;102113.63;4906554;29;20055;-70
2021/10/27 00:42:37;;;;;;;24.25;11.85;;;;;;;13.06;100.00;102118.22;4915930;29;20240;-70
2021/10/27 00:45:06;;;;;;;23.02;11.55;;;;;;;13.09;100.00;102125.28;4915810;29;20150;-68
2021/10/27 00:47:33;;;;;;;20.50;11.25;;;;;;;13.06;100.00;102128.06;4908792;29;20062;-68
2021/10/27 00:50:01;;;;;;;23.70;12.63;;;;;;;12.99;100.00;102121.94;4913585;29;20070;-68
2021/10/27 00:52:29;;;;;;;23.77;11.73;;;;;;;12.99;100.00;102119.25;4901454;29;20178;-68
2021/10/27 00:54:58;;;;;;;22.45;11.63;;;;;;;12.97;100.00;102130.91;4914396;29;20148;-68
2021/10/27 00:57:26;;;;;;;18.98;10.20;;;;;;;12.95;100.00;102120.22;4906575;29;20050;-68
2021/10/27 00:59:58;;;;;;;25.02;11.82;;;;;;;12.97;100.00;102125.56;4914566;28;20051;-68
2021/10/27 01:02:25;;;;;;;26.25;11.15;;;;;;;12.99;100.00;102131.75;4905766;29;20142;-68
2021/10/27 01:04:53;;;;;;;24.70;10.80;;;;;;;12.98;100.00;102117.50;4913907;29;20059;-69
2021/10/27 01:07:21;;;;;;;24.13;10.60;;;;;;;13.02;100.00;102118.31;4913984;29;20079;-68
2021/10/27 01:09:49;;;;;;;23.80;10.77;;;;;;;13.03;100.00;102129.00;4909977;29;20134;-68
2021/10/27 01:12:18;;;;;;;23.02;10.85;;;;;;;13.04;100.00;102121.81;4908162;29;20056;-69
2021/10/27 01:14:48;;;;;;;23.88;10.38;;;;;;;13.04;100.00;102121.81;4909951;29;20082;-68
2021/10/27 01:17:18;;;;;;;23.52;10.85;;;;;;;13.06;100.00;102122.69;4917649;29;20052;-68
2021/10/27 01:19:51;;;;;;;23.95;10.02;;;;;;;13.08;100.00;102126.22;4914414;29;20051;-68
2021/10/27 01:22:21;;;;;;;17.90;8.93;;;;;;;13.06;100.00;102126.25;4909998;29;20123;-68
2021/10/27 01:24:49;;;;;;;19.38;9.05;;;;;;;13.05;100.00;102124.47;4913400;29;20078;-69
2021/10/27 01:27:17;;;;;;;26.10;10.80;;;;;;;13.03;100.00;102123.63;4907734;29;20627;-69
2021/10/27 01:29:45;;;;;;;20.83;11.05;;;;;;;13.02;100.00;102127.22;4914961;29;20055;-68
2021/10/27 01:32:22;;;;;;;19.45;11.20;;;;;;;13.02;100.00;102124.53;4909079;29;20051;-69
2021/10/27 01:34:51;;;;;;;21.85;10.95;;;;;;;12.98;100.00;102138.91;4914175;29;20051;-69
2021/10/27 01:37:19;;;;;;;20.92;9.38;;;;;;;12.97;100.00;102137.16;4909105;29;20530;-68
2021/10/27 01:39:48;;;;;;;16.20;9.05;;;;;;;13.00;100.00;102128.19;4916663;29;20052;-68
2021/10/27 01:42:16;;;;;;;17.52;8.35;;;;;;;13.02;100.00;102126.34;4911964;29;20062;-68
2021/10/27 01:44:45;;;;;;;23.45;8.55;;;;;;;12.99;100.00;102121.94;4908921;29;20063;-69
2021/10/27 01:47:14;;;;;;;15.75;8.10;;;;;;;13.00;100.00;102121.00;4918953;29;20679;-68
2021/10/27 01:49:42;;;;;;;18.13;7.93;;;;;;;13.02;100.00;102119.16;4911740;29;20051;-69
2021/10/27 01:52:15;;;;;;;17.45;7.50;;;;;;;13.02;100.00;102118.31;4910258;29;20095;-68
2021/10/27 01:54:43;;;;;;;17.20;7.20;;;;;;;13.00;100.00;102120.13;4911061;29;20118;-69
2021/10/27 01:57:12;;;;;;;15.73;8.30;;;;;;;12.95;100.00;102122.03;4912053;29;20056;-68
2021/10/27 01:59:40;;;;;;;15.93;7.10;;;;;;;13.00;100.00;102112.97;4916638;29;20051;-68
2021/10/27 02:02:08;;;;;;;20.52;8.13;;;;;;;12.98;100.00;102097.84;4912049;29;20047;-68
2021/10/27 02:04:36;;;;;;;15.30;7.35;;;;;;;12.97;100.00;102107.66;4919029;29;20248;-68
2021/10/27 02:07:04;;;;;;;16.17;7.10;;;;;;;12.99;100.00;102110.31;4910018;29;20083;-68
2021/10/27 02:09:33;;;;;;;20.10;6.85;;;;;;;13.06;100.00;102112.84;4917775;29;20452;-69
2021/10/27 02:12:01;;;;;;;16.10;6.90;;;;;;;13.06;100.00;102106.63;4900942;29;20126;-68
2021/10/27 02:14:29;;;;;;;18.23;6.80;;;;;;;13.05;100.00;102103.03;4914954;29;20040;-68
2021/10/27 02:16:57;;;;;;;20.80;6.65;;;;;;;13.07;100.00;102109.22;4916774;29;20055;-68
2021/10/27 02:19:25;;;;;;;12.32;5.35;;;;;;;13.08;100.00;102112.81;4911876;29;20151;-68
2021/10/27 02:21:52;;;;;;;15.75;6.43;;;;;;;13.10;100.00;102091.34;4917155;29;20059;-68
2021/10/27 02:24:20;;;;;;;15.55;5.88;;;;;;;13.10;100.00;102088.66;4909416;29;20055;-69
2021/10/27 02:26:49;;;;;;;13.25;5.72;;;;;;;13.14;100.00;102087.66;4916893;29;20508;-68
2021/10/27 02:29:17;;;;;;;14.65;5.30;;;;;;;13.13;100.00;102077.84;4910744;29;20526;-69
2021/10/27 02:31:45;;;;;;;15.43;5.05;;;;;;;13.17;100.00;102088.47;4919577;29;20150;-69
2021/10/27 02:34:13;;;;;;;16.65;5.20;;;;;;;13.17;100.00;102090.28;4915355;29;20496;-68
2021/10/27 02:36:42;;;;;;;17.23;5.35;;;;;;;13.18;100.00;102079.53;4913595;29;20134;-69
2021/10/27 02:39:10;;;;;;;19.67;5.85;;;;;;;13.21;100.00;102091.97;4916266;29;20417;-68
2021/10/27 02:41:38;;;;;;;13.70;5.53;;;;;;;13.20;100.00;102087.53;4911264;29;20079;-68
2021/10/27 02:44:07;;;;;;;15.43;5.20;;;;;;;13.20;100.00;102101.81;4918221;29;20685;-68
2021/10/27 02:46:36;;;;;;;15.63;5.28;;;;;;;13.19;100.00;102097.34;4911897;29;20130;-68
2021/10/27 02:49:04;;;;;;;15.52;5.47;;;;;;;13.14;100.00;102095.72;4916230;29;20080;-68
2021/10/27 02:51:32;;;;;;;11.25;5.20;;;;;;;13.14;100.00;102101.94;4916051;29;20126;-68
2021/10/27 02:54:00;;;;;;;16.25;5.80;;;;;;;13.13;100.00;102099.28;4899279;29;20065;-70
2021/10/27 02:56:28;;;;;;;15.73;5.43;;;;;;;13.11;100.00;102106.50;4915328;29;20052;-68
2021/10/27 02:58:56;;;;;;;15.02;6.30;;;;;;;13.11;100.00;102102.03;4908848;29;20059;-67
2021/10/27 03:01:25;;;;;;;15.43;6.18;;;;;;;13.10;100.00;102102.06;4916215;29;20394;-68
2021/10/27 03:03:54;;;;;;;13.35;6.00;;;;;;;13.11;100.00;102094.00;4906427;29;20456;-70
2021/10/27 03:06:22;;;;;;;16.52;5.97;;;;;;;13.09;100.00;102103.84;4915768;29;20342;-69
2021/10/27 03:08:50;;;;;;;15.68;5.15;;;;;;;13.04;100.00;102103.97;4916174;29;20071;-70
2021/10/27 03:11:19;;;;;;;15.57;5.50;;;;;;;13.06;100.00;102109.28;4901566;29;20059;-70
2021/10/27 03:13:46;;;;;;;18.77;6.38;;;;;;;13.05;100.00;102107.53;4917198;29;20052;-69
2021/10/27 03:16:15;;;;;;;18.33;6.25;;;;;;;13.04;100.00;102105.75;4912838;29;20079;-69
2021/10/27 03:18:44;;;;;;;11.50;6.30;;;;;;;12.97;100.00;102099.63;4916009;29;20050;-69
2021/10/27 03:21:12;;;;;;;15.70;6.00;;;;;;;12.99;100.00;102107.66;4910224;29;20048;-69
2021/10/27 03:23:40;;;;;;;15.90;5.70;;;;;;;12.94;100.00;102107.75;4914233;29;20055;-69
2021/10/27 03:26:07;;;;;;;16.00;7.25;;;;;;;12.92;100.00;102114.94;4909729;29;20051;-69
2021/10/27 03:28:37;;;;;;;16.60;6.38;;;;;;;12.89;100.00;102109.66;4918572;29;20050;-72
2021/10/27 03:31:05;;;;;;;14.80;6.55;;;;;;;12.89;100.00;102109.66;4915228;29;20063;-71
2021/10/27 03:33:33;;;;;;;15.18;6.97;;;;;;;12.87;100.00;102107.00;4909423;29;20086;-72
2021/10/27 03:36:02;;;;;;;15.90;5.70;;;;;;;12.84;100.00;102108.88;4917263;29;20592;-72
2021/10/27 03:38:30;;;;;;;11.90;6.45;;;;;;;12.86;100.00;102107.03;4910726;29;20134;-71
2021/10/27 03:40:57;;;;;;;18.00;7.65;;;;;;;12.86;100.00;102104.38;4915583;29;21587;-71
2021/10/27 03:43:25;;;;;;;17.08;6.85;;;;;;;12.85;100.00;102106.13;4909076;29;20053;-71
2021/10/27 03:45:53;;;;;;;15.75;6.80;;;;;;;12.84;100.00;102111.56;4916567;29;20052;-70
2021/10/27 03:48:21;;;;;;;14.35;6.07;;;;;;;12.84;100.00;102115.13;4914241;29;20040;-71
2021/10/27 03:50:49;;;;;;;22.42;5.95;;;;;;;12.84;100.00;102109.75;4909028;29;20060;-71
2021/10/27 03:53:18;;;;;;;16.80;7.20;;;;;;;12.91;100.00;102112.31;4908501;29;20149;-71
2021/10/27 03:55:46;;;;;;;14.38;5.85;;;;;;;12.87;100.00;102115.06;4911674;29;20539;-68
2021/10/27 03:58:17;;;;;;;13.52;5.82;;;;;;;12.86;100.00;102107.03;4915956;29;20507;-68
2021/10/27 04:00:47;;;;;;;11.90;6.25;;;;;;;12.86;100.00;102112.41;4914418;29;20055;-68
2021/10/27 04:03:21;;;;;;;19.55;6.40;;;;;;;12.85;100.00;102118.66;4917452;29;20090;-68
2021/10/27 04:05:49;;;;;;;17.77;5.75;;;;;;;12.87;100.00;102115.06;4913946;29;20077;-68
2021/10/27 04:08:18;;;;;;;13.68;5.70;;;;;;;12.88;100.00;102116.78;4909963;29;20126;-68
2021/10/27 04:10:49;;;;;;;16.67;5.88;;;;;;;12.86;100.00;102117.75;4914394;29;20047;-68
2021/10/27 04:13:19;;;;;;;18.33;6.90;;;;;;;12.83;100.00;102121.38;4904743;29;20061;-68
2021/10/27 04:15:47;;;;;;;14.75;6.78;;;;;;;12.85;100.00;102110.63;4914251;29;20493;-68
2021/10/27 04:18:15;;;;;;;16.38;5.90;;;;;;;12.83;100.00;102118.69;4909142;29;20493;-68
2021/10/27 04:20:48;;;;;;;13.50;5.38;;;;;;;12.79;100.00;102119.69;4914692;29;20110;-68
2021/10/27 04:23:20;;;;;;;12.40;5.93;;;;;;;12.82;100.00;102114.28;4913484;29;20058;-68
2021/10/27 04:25:48;;;;;;;15.20;6.18;;;;;;;12.84;100.00;102119.59;4908553;29;20083;-68
2021/10/27 04:28:17;;;;;;;14.02;5.78;;;;;;;12.82;100.00;102103.56;4914572;29;20055;-68
2021/10/27 04:30:45;;;;;;;13.50;6.45;;;;;;;12.78;100.00;102107.19;4908485;29;20060;-68
2021/10/27 04:33:18;;;;;;;17.10;6.18;;;;;;;12.79;100.00;102110.78;4915147;29;20058;-68
2021/10/27 04:35:46;;;;;;;12.52;5.75;;;;;;;12.79;100.00;102118.81;4909097;29;20055;-68
2021/10/27 04:38:16;;;;;;;15.02;6.47;;;;;;;12.76;100.00;102111.72;4914899;29;20076;-68
2021/10/27 04:40:46;;;;;;;11.68;5.95;;;;;;;12.77;100.00;102109.91;4908571;29;20162;-68
2021/10/27 04:43:14;;;;;;;14.02;5.80;;;;;;;12.74;100.00;102107.31;4915724;29;20052;-68
2021/10/27 04:45:43;;;;;;;13.80;5.85;;;;;;;12.70;100.00;102115.41;4911128;29;20539;-68
2021/10/27 04:48:13;;;;;;;14.23;6.25;;;;;;;12.73;100.00;102122.47;4910889;29;20051;-68
2021/10/27 04:50:41;;;;;;;11.90;5.57;;;;;;;12.74;100.00;102115.34;4913090;29;20051;-71
2021/10/27 04:53:17;;;;;;;14.48;6.18;;;;;;;12.78;100.00;102114.34;4903266;29;20563;-71
2021/10/27 04:55:47;;;;;;;14.75;6.65;;;;;;;12.76;100.00;102119.75;4915073;29;20158;-71
2021/10/27 04:58:15;;;;;;;17.02;6.13;;;;;;;12.75;100.00;102112.59;4908458;29;20146;-70
2021/10/27 05:00:43;;;;;;;13.07;5.93;;;;;;;12.76;100.00;102117.06;4914015;29;21039;-71
2021/10/27 05:03:12;;;;;;;10.48;6.07;;;;;;;12.74;100.00;102107.31;4914867;29;20056;-71
2021/10/27 05:05:46;;;;;;;14.77;6.47;;;;;;;12.72;100.00;102115.38;4907830;29;20571;-71
2021/10/27 05:08:15;;;;;;;14.32;5.88;;;;;;;12.77;100.00;102113.47;4908082;29;20178;-72
2021/10/27 05:10:43;;;;;;;14.05;7.10;;;;;;;12.75;100.00;102117.09;4916565;29;20076;-71
2021/10/27 05:13:13;;;;;;;13.05;5.40;;;;;;;12.74;100.00;102115.34;4907864;29;20083;-71
2021/10/27 05:15:41;;;;;;;14.02;5.13;;;;;;;12.76;100.00;102116.19;4908760;29;20087;-70
2021/10/27 05:18:09;;;;;;;12.70;5.38;;;;;;;12.74;100.00;102124.25;4913358;29;20170;-71
2021/10/27 05:20:37;;;;;;;15.30;6.13;;;;;;;12.76;100.00;102126.91;4908529;29;20290;-71
2021/10/27 05:23:05;;;;;;;16.77;6.60;;;;;;;12.76;100.00;102114.38;4914448;29;20056;-71
2021/10/27 05:25:33;;;;;;;11.63;4.72;;;;;;;12.77;100.00;102115.25;4906953;29;20304;-71
2021/10/27 05:28:00;;;;;;;14.43;6.10;;;;;;;12.77;100.00;102115.25;4915020;29;20073;-70
2021/10/27 05:30:29;;;;;;;13.55;5.05;;;;;;;12.77;100.00;102109.91;4913134;29;20416;-71
2021/10/27 05:32:58;;;;;;;11.07;5.20;;;;;;;12.78;100.00;102109.88;4906783;29;20102;-71
2021/10/27 05:35:27;;;;;;;12.20;5.30;;;;;;;12.78;100.00;102106.31;4914753;29;20064;-71
2021/10/27 05:37:55;;;;;;;13.30;4.80;;;;;;;12.73;100.00;102109.09;4908070;29;20139;-71
2021/10/27 05:40:24;;;;;;;12.63;5.13;;;;;;;12.80;100.00;102107.16;4913327;29;20150;-70
2021/10/27 05:42:52;;;;;;;11.75;5.60;;;;;;;12.78;100.00;102112.56;4913006;29;20055;-71
2021/10/27 05:45:23;;;;;;;10.80;5.05;;;;;;;12.80;100.00;102110.72;4908806;29;20051;-71
2021/10/27 05:47:55;;;;;;;10.68;4.78;;;;;;;12.81;100.00;102119.66;4911962;29;20054;-71
2021/10/27 05:50:30;;;;;;;11.32;4.93;;;;;;;12.82;100.00;102105.31;4905622;29;20047;-71
2021/10/27 05:55:43;;;;;;;15.45;5.50;;;;;;;12.87;100.00;102108.78;4908845;29;20552;-71
2021/10/27 05:58:12;;;;;;;16.00;5.60;;;;;;;12.91;100.00;102113.19;4911672;29;20657;-71
2021/10/27 06:00:41;;;;;;;14.38;5.22;;;;;;;12.93;100.00;102119.38;4912108;29;20147;-70
2021/10/27 06:03:10;;;;;;;11.82;5.13;;;;;;;12.91;100.00;102121.22;4915488;29;20498;-71
2021/10/27 06:05:38;;;;;;;14.95;5.55;;;;;;;12.93;100.00;102126.56;4909058;29;20055;-71
2021/10/27 06:08:06;;;;;;;13.57;5.80;;;;;;;12.89;100.00;102126.59;4907829;29;20900;-71
2021/10/27 06:10:34;;;;;;;15.10;5.35;;;;;;;12.89;100.00;102120.38;4908263;29;20056;-73
2021/10/27 06:13:06;;;;;;;15.90;5.82;;;;;;;12.86;100.00;102123.13;4901215;29;20143;-74
2021/10/27 06:15:34;;;;;;;14.98;5.50;;;;;;;12.87;100.00;102130.22;4914685;29;20062;-72
2021/10/27 06:18:03;;;;;;;11.02;5.70;;;;;;;12.90;100.00;102132.84;4907009;29;20474;-72
2021/10/27 06:20:33;;;;;;;13.63;5.55;;;;;;;12.97;100.00;102130.91;4915104;29;20063;-73
2021/10/27 06:23:02;;;;;;;11.55;5.28;;;;;;;12.95;100.00;102130.06;4907174;29;20075;-73
2021/10/27 06:25:31;;;;;;;11.65;5.40;;;;;;;12.93;100.00;102127.44;4913869;29;20127;-73
2021/10/27 06:28:05;;;;;;;15.15;5.53;;;;;;;12.99;100.00;102134.44;4914395;29;20468;-73
2021/10/27 06:30:42;;;;;;;17.77;6.03;;;;;;;12.97;100.00;102145.19;4909723;29;20180;-74
2021/10/27 06:36:07;;;;;;;11.88;5.45;;;;;;;12.95;100.00;102141.66;4908194;29;20055;-73
2021/10/27 06:38:52;;;;;;;11.48;5.63;;;;;;;12.98;100.00;102149.63;4916021;29;20086;-73
2021/10/27 06:46:57;;;;;;;138.48;24.48;;;;;;;12.97;100.00;102155.91;4911426;29;20492;-70
2021/10/27 06:49:25;;;;;;;13.43;5.53;;;;;;;12.97;100.00;102160.38;4915792;29;20063;-73
2021/10/27 06:51:54;;;;;;;14.43;5.13;;;;;;;13.02;100.00;102163.84;4910576;29;20055;-73
2021/10/27 06:54:21;;;;;;;13.15;6.03;;;;;;;12.99;100.00;102179.97;4910888;29;20398;-73
2021/10/27 06:56:50;;;;;;;12.65;5.53;;;;;;;13.06;100.00;102173.59;4917923;28;20064;-74
2021/10/27 06:59:27;;;;;;;661.42;138.00;;;;;;;13.08;100.00;102179.81;4912223;29;20051;-73
2021/10/27 07:02:25;;;;;;;12.07;5.38;;;;;;;13.10;100.00;102177.09;4907973;29;20488;-71
2021/10/27 07:05:12;;;;;;;11.45;5.95;;;;;;;13.06;100.00;102181.66;4918096;29;20056;-71
2021/10/27 07:16:11;;;;;;;;;;;;;;;13.07;100.00;102173.53;4905379;29;20063;-71
2021/10/27 07:18:39;;;;;;;14.27;5.40;;;;;;;13.07;100.00;102184.25;4914984;29;20454;-70
2021/10/27 07:21:07;;;;;;;11.50;5.63;;;;;;;13.06;100.00;102179.84;4910448;29;20621;-69
2021/10/27 07:23:39;;;;;;;15.00;5.50;;;;;;;13.13;100.00;102177.00;4916195;29;20055;-69
2021/10/27 07:26:07;;;;;;;15.30;5.13;;;;;;;13.16;100.00;102185.91;4912872;29;20242;-68
2021/10/27 07:28:36;;;;;;;11.00;5.45;;;;;;;13.13;100.00;102191.31;4916953;29;20047;-70
2021/10/27 07:31:06;;;;;;;10.55;5.63;;;;;;;13.14;100.00;102192.19;4914974;29;20536;-69
2021/10/27 07:33:34;;;;;;;242.10;35.80;;;;;;;13.17;100.00;102194.81;4911756;29;20062;-69
2021/10/27 07:36:06;;;;;;;12.40;5.35;;;;;;;13.18;100.00;102194.78;4915648;29;20405;-69
2021/10/27 07:41:20;;;;;;;18.25;5.50;;;;;;;13.21;100.00;102192.03;4914483;29;20110;-69
2021/10/27 07:43:48;;;;;;;14.27;5.55;;;;;;;13.25;100.00;102203.56;4908174;29;21489;-69
2021/10/27 07:46:17;;;;;;;15.23;5.50;;;;;;;13.26;100.00;102205.31;4916542;29;20138;-68
2021/10/27 07:48:45;;;;;;;13.40;4.85;;;;;;;13.26;100.00;102199.94;4917074;29;20090;-68
2021/10/27 07:51:13;;;;;;;12.32;5.00;;;;;;;13.28;100.00;102200.81;4910952;29;20052;-69
2021/10/27 07:53:41;;;;;;;14.13;5.40;;;;;;;13.29;100.00;102197.22;4902079;29;20191;-69
2021/10/27 07:56:09;;;;;;;11.25;5.07;;;;;;;13.32;100.00;102199.00;4909437;29;20180;-68
2021/10/27 07:58:38;;;;;;;11.98;5.35;;;;;;;13.30;100.00;102190.94;4915018;29;20359;-68
2021/10/27 08:01:06;;;;;;;9.32;4.25;;;;;;;13.35;100.00;102193.53;4909146;29;20744;-69
2021/10/27 08:03:34;;;;;;;17.63;4.80;;;;;;;13.40;100.00;102197.00;4916285;29;20062;-69
2021/10/27 08:06:04;;;;;;;16.15;4.97;;;;;;;13.46;99.80;102196.88;4910553;29;20154;-68
2021/10/27 08:08:33;;;;;;;8.77;4.20;;;;;;;13.49;99.45;102202.16;4916414;29;20051;-69
2021/10/27 08:11:00;;;;;;;10.45;4.80;;;;;;;13.55;98.93;102209.19;4906392;29;20047;-69
2021/10/27 08:13:28;;;;;;;11.73;4.18;;;;;;;13.55;98.15;102210.09;4916124;29;20052;-69
2021/10/27 08:15:58;;;;;;;12.68;4.57;;;;;;;13.60;97.79;102208.19;4917150;29;20122;-72
2021/10/27 08:18:26;;;;;;;13.45;4.20;;;;;;;13.63;97.57;102212.56;4909701;29;20622;-72
2021/10/27 08:20:53;;;;;;;10.68;4.25;;;;;;;13.66;97.55;102212.50;4916323;29;20602;-73
2021/10/27 08:23:26;;;;;;;9.45;4.20;;;;;;;13.66;97.39;102225.94;4915686;28;20583;-73
2021/10/27 08:25:56;;;;;;;9.90;4.05;;;;;;;13.67;97.15;102224.13;4912133;29;20070;-73
2021/10/27 08:28:32;;;;;;;12.82;4.35;;;;;;;13.70;96.76;102224.91;4913647;29;20083;-73
2021/10/27 08:31:06;;;;;;;12.88;4.20;;;;;;;13.71;97.28;102210.59;4911611;29;20048;-73
2021/10/27 08:36:19;;;;;;;13.45;4.72;;;;;;;13.80;96.73;102222.91;4910453;29;20396;-73
2021/10/27 08:38:49;;;;;;;14.63;4.85;;;;;;;13.88;96.63;102209.34;4915263;29;20055;-74
2021/10/27 08:41:38;;;;;;;11.02;3.97;;;;;;;13.91;95.18;102225.34;4914731;29;20213;-73
2021/10/27 08:44:07;;;;;;;14.02;4.20;;;;;;;13.91;95.81;102215.50;4914466;29;20058;-73
2021/10/27 08:46:36;;;;;;;13.20;4.47;;;;;;;13.91;95.64;102223.56;4913819;29;20055;-74
2021/10/27 08:49:06;;;;;;;22.15;4.72;;;;;;;13.97;95.88;102219.81;4907985;29;20059;-74
2021/10/27 08:51:36;;;;;;;8.57;4.03;;;;;;;13.99;95.35;102217.97;4904988;29;20048;-73
2021/10/27 08:54:05;;;;;;;10.73;4.32;;;;;;;14.04;94.82;102217.88;4907361;28;20388;-73
2021/10/27 08:56:35;;;;;;;8.25;4.30;;;;;;;14.06;94.99;102224.09;4911825;29;20589;-73
2021/10/27 08:59:11;;;;;;;12.60;3.95;;;;;;;14.05;95.43;102220.53;4905733;29;20055;-73
2021/10/27 09:01:50;;;;;;;11.60;4.75;;;;;;;14.00;95.14;102227.81;4912817;29;20054;-73
2021/10/27 09:07:13;;;;;;;10.27;4.45;;;;;;;13.99;94.22;102234.09;4906173;29;20504;-73
2021/10/27 09:47:12;;;;;;;11.40;4.90;;;;;;;14.21;93.96;102245.19;4906687;29;20155;-69
2021/10/27 09:55:52;;;;;;;11.43;5.22;;;;;;;14.16;93.77;102244.41;4912022;29;20029;-70
2021/10/27 10:04:15;;;;;;;13.18;5.93;;;;;;;14.27;93.68;102260.25;4907626;29;20055;-69
2021/10/27 10:06:46;;;;;;;12.40;5.43;;;;;;;14.32;93.57;102259.22;4916940;29;20063;-69
2021/10/27 10:09:17;;;;;;;13.45;5.97;;;;;;;14.39;93.60;102255.44;4911349;29;20098;-69
2021/10/27 10:11:46;;;;;;;11.77;6.10;;;;;;;14.31;92.75;102265.50;4908164;29;20043;-69
2021/10/27 10:14:14;;;;;;;11.30;5.75;;;;;;;14.42;93.24;102254.50;4919405;29;20106;-69
2021/10/27 10:16:45;;;;;;;9.95;5.20;;;;;;;14.44;91.47;102252.66;4919472;29;20539;-69
2021/10/27 10:19:15;;;;;;;12.88;5.50;;;;;;;14.47;90.54;102244.53;4915837;29;21516;-69
2021/10/27 10:21:44;;;;;;;13.30;4.75;;;;;;;14.52;90.54;102245.28;4914447;29;20043;-69
2021/10/27 10:24:39;;;;;;;8.05;4.45;;;;;;;14.54;90.13;102246.13;4917358;29;20058;-69
2021/10/27 10:27:13;;;;;;;10.15;4.53;;;;;;;14.63;89.93;102249.53;4910176;29;20300;-69
2021/10/27 10:29:58;;;;;;;10.30;4.25;;;;;;;14.64;89.50;102253.97;4918156;29;20055;-69
2021/10/27 10:32:39;;;;;;;13.20;4.38;;;;;;;14.50;88.31;102263.22;4910005;29;20079;-69
2021/10/27 10:35:16;;;;;;;9.98;4.07;;;;;;;14.51;88.65;102266.81;4914845;29;20568;-69
2021/10/27 10:37:51;;;;;;;7.55;4.15;;;;;;;14.47;89.30;102267.78;4911060;29;20047;-69
2021/10/27 10:40:51;;;;;;;11.00;4.60;;;;;;;14.50;88.84;102265.03;4916582;29;20100;-69
2021/10/27 10:59:20;;;;;;;10.90;4.78;;;;;;;14.42;89.88;102277.78;4916646;29;20061;-73
2021/10/27 11:02:09;;;;;;;12.30;5.85;;;;;;;14.41;91.21;102289.44;4909023;29;20052;-73
2021/10/27 11:24:48;;;;;;;16.80;8.38;;;;;;;14.23;92.74;102274.66;4915571;29;20517;-74
2021/10/27 11:27:30;;;;;;;16.85;8.48;;;;;;;14.19;92.53;102272.06;4919349;29;20310;-73
2021/10/27 11:38:37;;;;;;;17.25;10.15;;;;;;;14.20;92.81;102254.16;4912405;28;20052;-73
2021/10/27 11:41:17;;;;;;;17.55;8.95;;;;;;;14.38;92.52;102250.13;4915907;29;20707;-73
2021/10/27 11:44:01;;;;;;;24.30;9.40;;;;;;;14.44;91.67;102243.69;4911421;29;20052;-73
2021/10/27 11:46:44;;;;;;;28.30;10.10;;;;;;;14.47;91.70;102239.16;4916338;29;20539;-72
2021/10/27 11:49:14;;;;;;;15.70;8.82;;;;;;;14.39;92.20;102235.78;4910573;29;20480;-74
2021/10/27 11:51:54;;;;;;;15.48;8.88;;;;;;;14.48;91.25;102229.28;4913983;29;20479;-73
2021/10/27 11:54:25;;;;;;;15.38;10.13;;;;;;;14.42;91.11;102229.44;4905532;29;20496;-73
2021/10/27 11:56:55;;;;;;;18.35;9.52;;;;;;;14.44;91.55;102231.19;4918048;29;20115;-73
2021/10/27 11:59:23;;;;;;;21.67;10.65;;;;;;;14.31;91.15;102235.09;4918223;29;20142;-73
2021/10/27 12:01:53;;;;;;;18.33;9.98;;;;;;;14.38;91.29;102226.81;4915206;29;20043;-73
2021/10/27 12:04:21;;;;;;;18.17;10.40;;;;;;;14.33;90.87;102220.69;4917771;29;20150;-72
2021/10/27 12:06:54;;;;;;;21.42;11.00;;;;;;;14.41;91.21;102228.56;4915734;29;20697;-73
2021/10/27 12:09:35;;;;;;;19.23;11.25;;;;;;;14.51;91.41;102218.47;4920714;29;20063;-73
2021/10/27 12:12:16;;;;;;;19.13;12.02;;;;;;;14.60;90.76;102218.25;4908621;29;20067;-73
2021/10/27 12:15:21;;;;;;;20.90;10.45;;;;;;;14.63;90.13;102219.97;4916877;29;20048;-72
2021/10/27 12:18:06;;;;;;;19.92;11.20;;;;;;;14.59;90.72;102218.28;4913363;29;20066;-73
2021/10/27 12:20:37;;;;;;;19.95;11.57;;;;;;;14.37;90.21;102208.97;4918899;29;20062;-73
2021/10/27 12:23:16;;;;;;;18.42;10.82;;;;;;;14.56;90.37;102214.72;4916125;29;20051;-73
2021/10/27 12:25:43;;;;;;;19.45;10.50;;;;;;;14.46;90.06;102199.78;4914642;29;20197;-73
2021/10/27 12:28:22;;;;;;;18.08;10.27;;;;;;;14.47;90.21;102204.25;4918073;29;20055;-73
2021/10/27 12:30:49;;;;;;;22.25;10.80;;;;;;;14.63;90.01;102210.09;4912517;29;20052;-72
2021/10/27 12:33:25;;;;;;;16.67;10.45;;;;;;;14.52;88.84;102196.03;4916550;29;20154;-73
2021/10/27 12:36:16;;;;;;;17.10;9.70;;;;;;;14.53;89.97;102187.94;4916730;29;20062;-73
2021/10/27 12:39:12;;;;;;;18.25;10.68;;;;;;;14.72;89.77;102200.91;4917383;29;20500;-73
2021/10/27 12:41:40;;;;;;;18.42;9.80;;;;;;;14.70;88.98;102194.72;4917978;29;20154;-73
2021/10/27 12:44:22;;;;;;;16.60;9.90;;;;;;;14.80;88.90;102181.91;4916867;29;20088;-73
2021/10/27 12:47:13;;;;;;;19.10;9.55;;;;;;;14.95;88.90;102184.16;4918106;29;20066;-73
2021/10/27 12:49:44;;;;;;;18.58;10.07;;;;;;;14.81;87.99;102180.97;4916977;29;20091;-73
2021/10/27 12:52:28;;;;;;;16.95;8.95;;;;;;;14.89;87.68;102178.94;4916442;29;20056;-73
2021/10/27 12:55:17;;;;;;;16.63;9.93;;;;;;;15.11;87.00;102173.81;4917693;29;20058;-73
2021/10/27 12:57:49;;;;;;;18.05;10.52;;;;;;;15.16;87.05;102169.19;4911552;29;20146;-73
2021/10/27 13:00:22;;;;;;;18.35;9.38;;;;;;;15.13;86.31;102162.06;4917087;29;20062;-73
2021/10/27 13:03:12;;;;;;;15.90;8.75;;;;;;;15.07;85.84;102159.59;4915633;29;20064;-72
2021/10/27 13:05:45;;;;;;;17.15;9.20;;;;;;;15.16;85.74;102166.50;4912098;29;20048;-73
2021/10/27 13:08:44;;;;;;;16.50;8.95;;;;;;;15.14;85.84;102171.03;4914219;29;20051;-72
2021/10/27 13:11:28;;;;;;;20.25;9.05;;;;;;;15.15;86.15;102161.16;4908055;29;20143;-73
2021/10/27 13:14:03;;;;;;;17.08;9.77;;;;;;;15.13;86.24;102170.13;4911747;29;20074;-73
2021/10/27 13:19:55;;;;;;;20.23;10.48;;;;;;;14.80;87.18;102168.47;4872023;29;20389;-73
2021/10/27 13:30:53;;;;;;;17.00;9.88;;;;;;;14.62;87.76;102173.41;4915430;29;20048;-73
2021/10/27 13:33:22;;;;;;;16.80;10.30;;;;;;;14.54;88.23;102165.56;4909560;29;20058;-73
2021/10/27 13:35:49;;;;;;;19.70;10.18;;;;;;;14.54;88.32;102168.22;4915636;29;20577;-74
2021/10/27 13:38:21;;;;;;;20.30;10.13;;;;;;;14.49;88.47;102162.09;4915352;29;20056;-73
2021/10/27 13:40:49;;;;;;;23.17;10.95;;;;;;;14.36;88.87;102164.22;4912624;29;20123;-73
2021/10/27 13:43:21;;;;;;;17.38;9.90;;;;;;;14.45;88.81;102151.47;4919090;29;20054;-73